sensor_id;sensor_type;location;lat;lon;timestamp;temperature;humidity
80230;DHT22;69540;42.136;24.742;2023-05-14T00:00:43;23.70;33.70
80230;DHT22;69540;42.136;24.742;2023-05-14T00:03:09;23.70;33.70
80230;DHT22;69540;42.136;24.742;2023-05-14T00:05:34;23.70;33.80
80230;DHT22;69540;42.136;24.742;2023-05-14T00:08:00;23.60;33.70
80230;DHT22;69540;42.136;24.742;2023-05-14T00:10:26;23.70;33.80
80230;DHT22;69540;42.136;24.742;2023-05-14T00:12:52;23.60;33.70
80230;DHT22;69540;42.136;24.742;2023-05-14T00:15:18;23.60;33.70
80230;DHT22;69540;42.136;24.742;2023-05-14T00:17:44;23.60;33.70
80230;DHT22;69540;42.136;24.742;2023-05-14T00:20:10;23.60;33.80
80230;DHT22;69540;42.136;24.742;2023-05-14T00:22:37;23.60;33.70
80230;DHT22;69540;42.136;24.742;2023-05-14T00:25:05;23.60;33.70
80230;DHT22;69540;42.136;24.742;2023-05-14T00:27:31;23.60;33.70
80230;DHT22;69540;42.136;24.742;2023-05-14T00:29:56;23.60;33.70
80230;DHT22;69540;42.136;24.742;2023-05-14T00:32:23;23.60;33.70
80230;DHT22;69540;42.136;24.742;2023-05-14T00:34:48;23.60;33.70
80230;DHT22;69540;42.136;24.742;2023-05-14T00:37:14;23.60;33.70
80230;DHT22;69540;42.136;24.742;2023-05-14T00:39:40;23.60;33.70
80230;DHT22;69540;42.136;24.742;2023-05-14T00:42:06;23.60;33.70
80230;DHT22;69540;42.136;24.742;2023-05-14T00:44:31;23.60;33.70
80230;DHT22;69540;42.136;24.742;2023-05-14T00:46:58;23.60;33.70
80230;DHT22;69540;42.136;24.742;2023-05-14T00:49:24;23.70;33.80
80230;DHT22;69540;42.136;24.742;2023-05-14T00:51:51;23.60;34.80
80230;DHT22;69540;42.136;24.742;2023-05-14T00:54:19;23.60;33.70
80230;DHT22;69540;42.136;24.742;2023-05-14T00:56:45;23.60;33.70
80230;DHT22;69540;42.136;24.742;2023-05-14T00:59:12;23.60;33.80
80230;DHT22;69540;42.136;24.742;2023-05-14T01:01:38;23.60;33.70
80230;DHT22;69540;42.136;24.742;2023-05-14T01:04:04;23.60;33.70
80230;DHT22;69540;42.136;24.742;2023-05-14T01:15:11;23.60;33.80
80230;DHT22;69540;42.136;24.742;2023-05-14T01:17:40;23.60;33.80
80230;DHT22;69540;42.136;24.742;2023-05-14T01:20:07;23.60;33.80
80230;DHT22;69540;42.136;24.742;2023-05-14T01:22:34;23.60;33.80
80230;DHT22;69540;42.136;24.742;2023-05-14T01:24:59;23.60;33.80
80230;DHT22;69540;42.136;24.742;2023-05-14T01:27:34;23.60;33.80
80230;DHT22;69540;42.136;24.742;2023-05-14T01:32:55;23.60;33.80
80230;DHT22;69540;42.136;24.742;2023-05-14T01:35:24;23.60;33.80
80230;DHT22;69540;42.136;24.742;2023-05-14T01:37:50;23.60;33.80
80230;DHT22;69540;42.136;24.742;2023-05-14T01:40:18;23.60;33.70
80230;DHT22;69540;42.136;24.742;2023-05-14T01:42:44;23.60;33.80
80230;DHT22;69540;42.136;24.742;2023-05-14T01:45:10;23.60;33.70
80230;DHT22;69540;42.136;24.742;2023-05-14T01:47:35;23.60;33.70
80230;DHT22;69540;42.136;24.742;2023-05-14T01:50:01;23.60;33.70
80230;DHT22;69540;42.136;24.742;2023-05-14T01:52:27;23.60;33.70
80230;DHT22;69540;42.136;24.742;2023-05-14T01:54:52;23.60;33.70
80230;DHT22;69540;42.136;24.742;2023-05-14T01:57:18;23.60;33.70
80230;DHT22;69540;42.136;24.742;2023-05-14T01:59:44;23.60;33.70
80230;DHT22;69540;42.136;24.742;2023-05-14T02:02:09;23.60;33.70
80230;DHT22;69540;42.136;24.742;2023-05-14T02:04:35;23.60;33.70
80230;DHT22;69540;42.136;24.742;2023-05-14T02:07:00;23.60;33.80
80230;DHT22;69540;42.136;24.742;2023-05-14T02:09:26;23.60;33.70
80230;DHT22;69540;42.136;24.742;2023-05-14T02:11:52;23.60;33.70
80230;DHT22;69540;42.136;24.742;2023-05-14T02:14:17;23.60;33.80
80230;DHT22;69540;42.136;24.742;2023-05-14T02:16:43;23.60;33.80
80230;DHT22;69540;42.136;24.742;2023-05-14T02:19:08;23.60;33.70
80230;DHT22;69540;42.136;24.742;2023-05-14T02:21:34;23.60;33.70
80230;DHT22;69540;42.136;24.742;2023-05-14T02:24:00;23.60;33.80
80230;DHT22;69540;42.136;24.742;2023-05-14T02:26:25;23.50;33.70
80230;DHT22;69540;42.136;24.742;2023-05-14T02:28:51;23.60;33.70
80230;DHT22;69540;42.136;24.742;2023-05-14T02:31:16;23.60;33.70
80230;DHT22;69540;42.136;24.742;2023-05-14T02:33:44;23.60;33.70
80230;DHT22;69540;42.136;24.742;2023-05-14T02:36:09;23.60;33.70
80230;DHT22;69540;42.136;24.742;2023-05-14T02:38:35;23.60;33.70
80230;DHT22;69540;42.136;24.742;2023-05-14T02:41:00;23.60;33.70
80230;DHT22;69540;42.136;24.742;2023-05-14T02:43:26;23.60;33.80
80230;DHT22;69540;42.136;24.742;2023-05-14T02:45:52;23.60;33.70
80230;DHT22;69540;42.136;24.742;2023-05-14T02:48:17;23.60;33.70
80230;DHT22;69540;42.136;24.742;2023-05-14T02:50:43;23.60;33.70
80230;DHT22;69540;42.136;24.742;2023-05-14T02:53:08;23.60;33.70
80230;DHT22;69540;42.136;24.742;2023-05-14T02:55:34;23.50;33.70
80230;DHT22;69540;42.136;24.742;2023-05-14T02:58:00;23.60;33.80
80230;DHT22;69540;42.136;24.742;2023-05-14T03:00:26;23.60;33.70
80230;DHT22;69540;42.136;24.742;2023-05-14T03:02:51;23.60;33.70
80230;DHT22;69540;42.136;24.742;2023-05-14T03:05:17;23.60;33.70
80230;DHT22;69540;42.136;24.742;2023-05-14T03:07:43;23.60;33.60
80230;DHT22;69540;42.136;24.742;2023-05-14T03:10:09;23.60;33.60
80230;DHT22;69540;42.136;24.742;2023-05-14T03:12:34;23.60;33.60
80230;DHT22;69540;42.136;24.742;2023-05-14T03:15:00;23.60;33.70
80230;DHT22;69540;42.136;24.742;2023-05-14T03:17:26;23.60;34.70
80230;DHT22;69540;42.136;24.742;2023-05-14T03:19:51;23.50;33.60
80230;DHT22;69540;42.136;24.742;2023-05-14T03:22:17;23.60;33.60
80230;DHT22;69540;42.136;24.742;2023-05-14T03:24:43;23.50;33.60
80230;DHT22;69540;42.136;24.742;2023-05-14T03:27:08;23.60;33.60
80230;DHT22;69540;42.136;24.742;2023-05-14T03:29:34;23.60;33.80
80230;DHT22;69540;42.136;24.742;2023-05-14T03:32:00;23.60;33.60
80230;DHT22;69540;42.136;24.742;2023-05-14T03:34:25;23.60;33.60
80230;DHT22;69540;42.136;24.742;2023-05-14T03:36:51;23.60;33.60
80230;DHT22;69540;42.136;24.742;2023-05-14T03:39:17;23.60;33.60
80230;DHT22;69540;42.136;24.742;2023-05-14T03:41:47;23.60;33.60
80230;DHT22;69540;42.136;24.742;2023-05-14T03:44:13;23.60;33.60
80230;DHT22;69540;42.136;24.742;2023-05-14T03:46:38;23.60;33.70
80230;DHT22;69540;42.136;24.742;2023-05-14T03:49:05;23.60;33.70
80230;DHT22;69540;42.136;24.742;2023-05-14T03:51:31;23.60;33.60
80230;DHT22;69540;42.136;24.742;2023-05-14T03:53:57;23.50;33.70
80230;DHT22;69540;42.136;24.742;2023-05-14T03:56:23;23.60;33.60
80230;DHT22;69540;42.136;24.742;2023-05-14T03:58:49;23.50;33.60
80230;DHT22;69540;42.136;24.742;2023-05-14T04:01:14;23.60;33.70
80230;DHT22;69540;42.136;24.742;2023-05-14T04:03:40;23.60;33.60
80230;DHT22;69540;42.136;24.742;2023-05-14T04:06:06;23.60;33.60
80230;DHT22;69540;42.136;24.742;2023-05-14T04:08:31;23.60;33.60
80230;DHT22;69540;42.136;24.742;2023-05-14T04:10:57;23.50;33.60
80230;DHT22;69540;42.136;24.742;2023-05-14T04:13:23;23.60;33.60
80230;DHT22;69540;42.136;24.742;2023-05-14T04:15:48;23.50;33.60
80230;DHT22;69540;42.136;24.742;2023-05-14T04:18:14;23.50;33.60
80230;DHT22;69540;42.136;24.742;2023-05-14T04:20:39;23.60;33.70
80230;DHT22;69540;42.136;24.742;2023-05-14T04:23:05;23.60;33.60
80230;DHT22;69540;42.136;24.742;2023-05-14T04:25:31;23.60;33.60
80230;DHT22;69540;42.136;24.742;2023-05-14T04:27:56;23.60;33.60
80230;DHT22;69540;42.136;24.742;2023-05-14T04:30:23;23.60;33.70
80230;DHT22;69540;42.136;24.742;2023-05-14T04:32:48;23.50;33.60
80230;DHT22;69540;42.136;24.742;2023-05-14T04:35:14;23.60;33.60
80230;DHT22;69540;42.136;24.742;2023-05-14T04:37:40;23.60;33.60
80230;DHT22;69540;42.136;24.742;2023-05-14T04:40:07;23.60;33.80
80230;DHT22;69540;42.136;24.742;2023-05-14T04:42:33;23.60;33.60
80230;DHT22;69540;42.136;24.742;2023-05-14T04:44:58;23.60;33.60
80230;DHT22;69540;42.136;24.742;2023-05-14T04:47:24;23.60;33.60
80230;DHT22;69540;42.136;24.742;2023-05-14T04:49:50;23.60;33.70
80230;DHT22;69540;42.136;24.742;2023-05-14T04:52:16;23.60;33.70
80230;DHT22;69540;42.136;24.742;2023-05-14T04:54:42;23.60;33.70
80230;DHT22;69540;42.136;24.742;2023-05-14T04:57:07;23.50;33.60
80230;DHT22;69540;42.136;24.742;2023-05-14T04:59:33;23.50;33.60
80230;DHT22;69540;42.136;24.742;2023-05-14T05:01:59;23.50;33.60
80230;DHT22;69540;42.136;24.742;2023-05-14T05:04:24;23.60;33.70
80230;DHT22;69540;42.136;24.742;2023-05-14T05:06:50;23.60;33.60
80230;DHT22;69540;42.136;24.742;2023-05-14T05:09:19;23.50;33.70
80230;DHT22;69540;42.136;24.742;2023-05-14T05:11:45;23.60;33.70
80230;DHT22;69540;42.136;24.742;2023-05-14T05:14:10;23.50;33.60
80230;DHT22;69540;42.136;24.742;2023-05-14T05:16:36;23.50;33.60
80230;DHT22;69540;42.136;24.742;2023-05-14T05:19:01;23.50;33.60
80230;DHT22;69540;42.136;24.742;2023-05-14T05:21:27;23.50;33.60
80230;DHT22;69540;42.136;24.742;2023-05-14T05:23:53;23.50;33.70
80230;DHT22;69540;42.136;24.742;2023-05-14T05:26:18;23.50;33.70
80230;DHT22;69540;42.136;24.742;2023-05-14T05:28:44;23.60;34.80
80230;DHT22;69540;42.136;24.742;2023-05-14T05:31:10;23.50;33.60
80230;DHT22;69540;42.136;24.742;2023-05-14T05:33:35;23.50;33.70
80230;DHT22;69540;42.136;24.742;2023-05-14T05:36:01;23.50;33.70
80230;DHT22;69540;42.136;24.742;2023-05-14T05:38:27;23.50;33.70
80230;DHT22;69540;42.136;24.742;2023-05-14T05:40:52;23.50;33.60
80230;DHT22;69540;42.136;24.742;2023-05-14T05:43:18;23.60;33.70
80230;DHT22;69540;42.136;24.742;2023-05-14T05:45:43;23.50;33.70
80230;DHT22;69540;42.136;24.742;2023-05-14T05:48:10;23.50;33.70
80230;DHT22;69540;42.136;24.742;2023-05-14T05:50:36;23.50;33.70
80230;DHT22;69540;42.136;24.742;2023-05-14T05:53:02;23.50;33.70
80230;DHT22;69540;42.136;24.742;2023-05-14T05:55:28;23.60;33.80
80230;DHT22;69540;42.136;24.742;2023-05-14T05:57:54;23.60;33.70
80230;DHT22;69540;42.136;24.742;2023-05-14T06:00:20;23.50;33.70
80230;DHT22;69540;42.136;24.742;2023-05-14T06:02:46;23.50;33.70
80230;DHT22;69540;42.136;24.742;2023-05-14T06:05:12;23.60;33.70
80230;DHT22;69540;42.136;24.742;2023-05-14T06:07:37;23.50;33.70
80230;DHT22;69540;42.136;24.742;2023-05-14T06:10:03;23.50;33.70
80230;DHT22;69540;42.136;24.742;2023-05-14T06:12:29;23.50;33.70
80230;DHT22;69540;42.136;24.742;2023-05-14T06:14:55;23.50;33.70
80230;DHT22;69540;42.136;24.742;2023-05-14T06:17:23;23.50;33.70
80230;DHT22;69540;42.136;24.742;2023-05-14T06:19:49;23.50;33.70
80230;DHT22;69540;42.136;24.742;2023-05-14T06:22:15;23.50;33.80
80230;DHT22;69540;42.136;24.742;2023-05-14T06:24:41;23.50;33.70
80230;DHT22;69540;42.136;24.742;2023-05-14T06:27:06;23.50;33.70
80230;DHT22;69540;42.136;24.742;2023-05-14T06:29:32;23.50;33.70
80230;DHT22;69540;42.136;24.742;2023-05-14T06:32:01;23.50;33.80
80230;DHT22;69540;42.136;24.742;2023-05-14T06:34:27;23.50;33.70
80230;DHT22;69540;42.136;24.742;2023-05-14T06:36:52;23.50;33.70
80230;DHT22;69540;42.136;24.742;2023-05-14T06:39:18;23.50;33.70
80230;DHT22;69540;42.136;24.742;2023-05-14T06:41:44;23.50;33.70
80230;DHT22;69540;42.136;24.742;2023-05-14T06:44:09;23.50;33.80
80230;DHT22;69540;42.136;24.742;2023-05-14T06:46:35;23.50;33.70
80230;DHT22;69540;42.136;24.742;2023-05-14T06:49:01;23.50;33.80
80230;DHT22;69540;42.136;24.742;2023-05-14T06:51:27;23.50;33.70
80230;DHT22;69540;42.136;24.742;2023-05-14T06:53:54;23.50;33.70
80230;DHT22;69540;42.136;24.742;2023-05-14T06:56:20;23.50;33.70
80230;DHT22;69540;42.136;24.742;2023-05-14T06:58:46;23.50;33.70
80230;DHT22;69540;42.136;24.742;2023-05-14T07:01:12;23.50;33.70
80230;DHT22;69540;42.136;24.742;2023-05-14T07:03:38;23.50;33.70
80230;DHT22;69540;42.136;24.742;2023-05-14T07:06:03;23.50;33.80
80230;DHT22;69540;42.136;24.742;2023-05-14T07:08:29;23.50;33.70
80230;DHT22;69540;42.136;24.742;2023-05-14T07:10:55;23.50;33.70
80230;DHT22;69540;42.136;24.742;2023-05-14T07:13:21;23.50;33.70
80230;DHT22;69540;42.136;24.742;2023-05-14T07:15:47;23.50;33.70
80230;DHT22;69540;42.136;24.742;2023-05-14T07:18:13;23.50;33.70
80230;DHT22;69540;42.136;24.742;2023-05-14T07:20:38;23.50;33.70
80230;DHT22;69540;42.136;24.742;2023-05-14T07:23:04;23.50;33.70
80230;DHT22;69540;42.136;24.742;2023-05-14T07:25:30;23.50;33.80
80230;DHT22;69540;42.136;24.742;2023-05-14T07:27:57;23.50;33.80
80230;DHT22;69540;42.136;24.742;2023-05-14T07:30:22;23.50;33.70
80230;DHT22;69540;42.136;24.742;2023-05-14T07:32:48;23.50;33.70
80230;DHT22;69540;42.136;24.742;2023-05-14T07:35:14;23.50;33.80
80230;DHT22;69540;42.136;24.742;2023-05-14T07:37:39;23.50;33.70
80230;DHT22;69540;42.136;24.742;2023-05-14T07:40:06;23.50;33.70
80230;DHT22;69540;42.136;24.742;2023-05-14T07:42:31;23.50;33.80
80230;DHT22;69540;42.136;24.742;2023-05-14T07:44:57;23.50;33.80
80230;DHT22;69540;42.136;24.742;2023-05-14T07:47:23;23.50;33.80
80230;DHT22;69540;42.136;24.742;2023-05-14T07:49:50;23.50;33.80
80230;DHT22;69540;42.136;24.742;2023-05-14T07:52:18;23.50;33.80
80230;DHT22;69540;42.136;24.742;2023-05-14T07:54:43;23.50;33.80
80230;DHT22;69540;42.136;24.742;2023-05-14T07:57:09;23.50;33.80
80230;DHT22;69540;42.136;24.742;2023-05-14T07:59:35;23.50;33.80
80230;DHT22;69540;42.136;24.742;2023-05-14T08:02:00;23.50;33.80
80230;DHT22;69540;42.136;24.742;2023-05-14T08:04:26;23.50;33.80
80230;DHT22;69540;42.136;24.742;2023-05-14T08:06:51;23.50;33.80
80230;DHT22;69540;42.136;24.742;2023-05-14T08:09:17;23.50;33.80
80230;DHT22;69540;42.136;24.742;2023-05-14T08:11:43;23.50;33.90
80230;DHT22;69540;42.136;24.742;2023-05-14T08:14:08;23.50;33.80
80230;DHT22;69540;42.136;24.742;2023-05-14T08:16:34;23.50;33.90
80230;DHT22;69540;42.136;24.742;2023-05-14T08:19:00;23.50;33.90
80230;DHT22;69540;42.136;24.742;2023-05-14T08:21:25;23.50;33.90
80230;DHT22;69540;42.136;24.742;2023-05-14T08:23:52;23.50;33.90
80230;DHT22;69540;42.136;24.742;2023-05-14T08:26:18;23.50;33.90
80230;DHT22;69540;42.136;24.742;2023-05-14T08:28:43;23.50;33.90
80230;DHT22;69540;42.136;24.742;2023-05-14T08:31:09;23.50;33.90
80230;DHT22;69540;42.136;24.742;2023-05-14T08:33:35;23.50;33.90
80230;DHT22;69540;42.136;24.742;2023-05-14T08:36:00;23.50;33.90
80230;DHT22;69540;42.136;24.742;2023-05-14T08:38:26;23.50;33.90
80230;DHT22;69540;42.136;24.742;2023-05-14T08:40:58;23.50;34.00
80230;DHT22;69540;42.136;24.742;2023-05-14T08:43:37;23.50;34.00
80230;DHT22;69540;42.136;24.742;2023-05-14T08:46:05;23.50;34.00
80230;DHT22;69540;42.136;24.742;2023-05-14T08:48:31;23.50;34.00
80230;DHT22;69540;42.136;24.742;2023-05-14T08:50:58;23.50;34.00
80230;DHT22;69540;42.136;24.742;2023-05-14T08:53:25;23.50;34.00
80230;DHT22;69540;42.136;24.742;2023-05-14T08:55:50;23.50;34.00
80230;DHT22;69540;42.136;24.742;2023-05-14T08:58:18;23.50;34.00
80230;DHT22;69540;42.136;24.742;2023-05-14T09:00:44;23.50;34.00
80230;DHT22;69540;42.136;24.742;2023-05-14T09:03:11;23.50;34.00
80230;DHT22;69540;42.136;24.742;2023-05-14T09:05:37;23.50;34.00
80230;DHT22;69540;42.136;24.742;2023-05-14T09:08:03;23.50;34.00
80230;DHT22;69540;42.136;24.742;2023-05-14T09:10:29;23.50;34.00
80230;DHT22;69540;42.136;24.742;2023-05-14T09:12:55;23.50;34.00
80230;DHT22;69540;42.136;24.742;2023-05-14T09:15:20;23.50;34.00
80230;DHT22;69540;42.136;24.742;2023-05-14T09:17:47;23.50;34.00
80230;DHT22;69540;42.136;24.742;2023-05-14T09:20:13;23.50;34.00
80230;DHT22;69540;42.136;24.742;2023-05-14T09:22:39;23.50;34.20
80230;DHT22;69540;42.136;24.742;2023-05-14T09:25:07;23.50;34.00
80230;DHT22;69540;42.136;24.742;2023-05-14T09:27:34;23.50;34.00
80230;DHT22;69540;42.136;24.742;2023-05-14T09:30:11;23.50;34.00
80230;DHT22;69540;42.136;24.742;2023-05-14T09:32:42;23.50;34.00
80230;DHT22;69540;42.136;24.742;2023-05-14T09:35:13;23.50;34.10
80230;DHT22;69540;42.136;24.742;2023-05-14T09:37:45;23.50;34.10
80230;DHT22;69540;42.136;24.742;2023-05-14T09:40:12;23.50;34.10
80230;DHT22;69540;42.136;24.742;2023-05-14T09:42:38;23.50;34.20
80230;DHT22;69540;42.136;24.742;2023-05-14T09:45:05;23.50;34.10
80230;DHT22;69540;42.136;24.742;2023-05-14T09:47:31;23.50;34.10
80230;DHT22;69540;42.136;24.742;2023-05-14T09:49:57;23.50;34.20
80230;DHT22;69540;42.136;24.742;2023-05-14T09:52:23;23.50;34.10
80230;DHT22;69540;42.136;24.742;2023-05-14T09:54:52;23.50;34.10
80230;DHT22;69540;42.136;24.742;2023-05-14T09:57:18;23.50;34.10
80230;DHT22;69540;42.136;24.742;2023-05-14T09:59:44;23.50;34.10
80230;DHT22;69540;42.136;24.742;2023-05-14T10:02:23;23.50;34.10
80230;DHT22;69540;42.136;24.742;2023-05-14T10:04:51;23.50;34.10
80230;DHT22;69540;42.136;24.742;2023-05-14T10:07:21;23.50;34.10
80230;DHT22;69540;42.136;24.742;2023-05-14T10:09:52;23.50;34.10
80230;DHT22;69540;42.136;24.742;2023-05-14T10:12:21;23.50;34.20
80230;DHT22;69540;42.136;24.742;2023-05-14T10:14:49;23.50;34.10
80230;DHT22;69540;42.136;24.742;2023-05-14T10:17:22;23.50;34.10
80230;DHT22;69540;42.136;24.742;2023-05-14T10:19:52;23.50;34.10
80230;DHT22;69540;42.136;24.742;2023-05-14T10:22:22;23.50;34.20
80230;DHT22;69540;42.136;24.742;2023-05-14T10:24:49;23.50;34.20
80230;DHT22;69540;42.136;24.742;2023-05-14T10:27:21;23.50;34.20
80230;DHT22;69540;42.136;24.742;2023-05-14T10:29:51;23.50;34.20
80230;DHT22;69540;42.136;24.742;2023-05-14T10:32:21;23.50;34.20
80230;DHT22;69540;42.136;24.742;2023-05-14T10:34:51;23.50;34.20
80230;DHT22;69540;42.136;24.742;2023-05-14T10:37:26;23.50;34.20
80230;DHT22;69540;42.136;24.742;2023-05-14T10:42:20;23.50;34.20
80230;DHT22;69540;42.136;24.742;2023-05-14T10:45:01;23.50;34.20
80230;DHT22;69540;42.136;24.742;2023-05-14T10:47:27;23.50;34.30
80230;DHT22;69540;42.136;24.742;2023-05-14T10:49:57;23.50;34.20
80230;DHT22;69540;42.136;24.742;2023-05-14T10:52:23;23.50;34.20
80230;DHT22;69540;42.136;24.742;2023-05-14T10:55:01;23.50;34.20
80230;DHT22;69540;42.136;24.742;2023-05-14T10:57:29;23.50;34.20
80230;DHT22;69540;42.136;24.742;2023-05-14T10:59:57;23.50;34.20
80230;DHT22;69540;42.136;24.742;2023-05-14T11:02:29;23.50;34.20
80230;DHT22;69540;42.136;24.742;2023-05-14T11:05:06;23.50;34.20
80230;DHT22;69540;42.136;24.742;2023-05-14T11:07:43;23.50;34.30
80230;DHT22;69540;42.136;24.742;2023-05-14T11:10:11;23.50;34.20
80230;DHT22;69540;42.136;24.742;2023-05-14T11:12:41;23.50;34.20
80230;DHT22;69540;42.136;24.742;2023-05-14T11:15:10;23.50;35.40
80230;DHT22;69540;42.136;24.742;2023-05-14T11:17:37;23.50;34.20
80230;DHT22;69540;42.136;24.742;2023-05-14T11:20:04;23.50;34.20
80230;DHT22;69540;42.136;24.742;2023-05-14T11:22:31;23.50;34.30
80230;DHT22;69540;42.136;24.742;2023-05-14T11:24:56;23.50;34.20
80230;DHT22;69540;42.136;24.742;2023-05-14T11:27:22;23.50;35.30
80230;DHT22;69540;42.136;24.742;2023-05-14T11:29:48;23.50;34.30
80230;DHT22;69540;42.136;24.742;2023-05-14T11:32:15;23.50;34.20
80230;DHT22;69540;42.136;24.742;2023-05-14T11:34:42;23.50;34.30
80230;DHT22;69540;42.136;24.742;2023-05-14T11:37:10;23.50;34.20
80230;DHT22;69540;42.136;24.742;2023-05-14T11:39:37;23.50;34.30
80230;DHT22;69540;42.136;24.742;2023-05-14T11:42:07;23.50;34.30
80230;DHT22;69540;42.136;24.742;2023-05-14T11:44:34;23.50;34.30
80230;DHT22;69540;42.136;24.742;2023-05-14T11:46:59;23.50;34.30
80230;DHT22;69540;42.136;24.742;2023-05-14T11:49:30;23.50;34.30
80230;DHT22;69540;42.136;24.742;2023-05-14T11:52:00;23.50;34.30
80230;DHT22;69540;42.136;24.742;2023-05-14T11:54:27;23.50;34.30
80230;DHT22;69540;42.136;24.742;2023-05-14T11:56:57;23.50;34.30
80230;DHT22;69540;42.136;24.742;2023-05-14T11:59:24;23.50;34.30
80230;DHT22;69540;42.136;24.742;2023-05-14T12:01:50;23.50;34.30
80230;DHT22;69540;42.136;24.742;2023-05-14T12:04:19;23.50;34.30
80230;DHT22;69540;42.136;24.742;2023-05-14T12:06:48;23.50;34.30
80230;DHT22;69540;42.136;24.742;2023-05-14T12:09:21;23.50;34.30
80230;DHT22;69540;42.136;24.742;2023-05-14T12:11:49;23.50;34.30
80230;DHT22;69540;42.136;24.742;2023-05-14T12:16:43;23.50;34.40
80230;DHT22;69540;42.136;24.742;2023-05-14T12:19:10;23.50;34.30
80230;DHT22;69540;42.136;24.742;2023-05-14T12:21:38;23.50;34.30
80230;DHT22;69540;42.136;24.742;2023-05-14T12:24:11;23.50;34.30
80230;DHT22;69540;42.136;24.742;2023-05-14T12:26:37;23.50;34.30
80230;DHT22;69540;42.136;24.742;2023-05-14T12:29:03;23.50;34.40
80230;DHT22;69540;42.136;24.742;2023-05-14T12:31:33;23.50;34.40
80230;DHT22;69540;42.136;24.742;2023-05-14T12:33:58;23.50;34.40
80230;DHT22;69540;42.136;24.742;2023-05-14T12:36:24;23.40;34.40
80230;DHT22;69540;42.136;24.742;2023-05-14T12:38:59;23.50;34.40
80230;DHT22;69540;42.136;24.742;2023-05-14T12:41:29;23.50;34.40
80230;DHT22;69540;42.136;24.742;2023-05-14T12:43:55;23.50;34.50
80230;DHT22;69540;42.136;24.742;2023-05-14T12:46:21;23.50;34.40
80230;DHT22;69540;42.136;24.742;2023-05-14T12:48:47;23.50;34.40
80230;DHT22;69540;42.136;24.742;2023-05-14T12:51:13;23.50;34.50
80230;DHT22;69540;42.136;24.742;2023-05-14T12:53:39;23.50;34.40
80230;DHT22;69540;42.136;24.742;2023-05-14T12:56:05;23.50;34.40
80230;DHT22;69540;42.136;24.742;2023-05-14T12:58:30;23.50;34.40
80230;DHT22;69540;42.136;24.742;2023-05-14T13:00:56;23.50;34.40
80230;DHT22;69540;42.136;24.742;2023-05-14T13:03:22;23.50;34.40
80230;DHT22;69540;42.136;24.742;2023-05-14T13:05:47;23.50;34.40
80230;DHT22;69540;42.136;24.742;2023-05-14T13:08:13;23.50;34.40
80230;DHT22;69540;42.136;24.742;2023-05-14T13:10:42;23.50;34.50
80230;DHT22;69540;42.136;24.742;2023-05-14T13:13:08;23.50;34.40
80230;DHT22;69540;42.136;24.742;2023-05-14T13:15:34;23.50;34.40
80230;DHT22;69540;42.136;24.742;2023-05-14T13:18:00;23.50;34.40
80230;DHT22;69540;42.136;24.742;2023-05-14T13:20:26;23.50;34.40
80230;DHT22;69540;42.136;24.742;2023-05-14T13:22:52;23.50;34.40
80230;DHT22;69540;42.136;24.742;2023-05-14T13:25:18;23.50;34.40
80230;DHT22;69540;42.136;24.742;2023-05-14T13:27:43;23.50;34.40
80230;DHT22;69540;42.136;24.742;2023-05-14T13:30:09;23.50;34.40
80230;DHT22;69540;42.136;24.742;2023-05-14T13:32:35;23.50;34.50
80230;DHT22;69540;42.136;24.742;2023-05-14T13:35:00;23.50;34.50
80230;DHT22;69540;42.136;24.742;2023-05-14T13:37:26;23.50;34.40
80230;DHT22;69540;42.136;24.742;2023-05-14T13:39:52;23.50;34.40
80230;DHT22;69540;42.136;24.742;2023-05-14T13:42:18;23.50;34.50
80230;DHT22;69540;42.136;24.742;2023-05-14T13:44:43;23.50;34.40
80230;DHT22;69540;42.136;24.742;2023-05-14T13:47:09;23.50;34.40
80230;DHT22;69540;42.136;24.742;2023-05-14T13:49:35;23.50;34.40
80230;DHT22;69540;42.136;24.742;2023-05-14T13:52:00;23.50;34.40
80230;DHT22;69540;42.136;24.742;2023-05-14T13:54:26;23.50;35.60
80230;DHT22;69540;42.136;24.742;2023-05-14T13:56:52;23.50;34.50
80230;DHT22;69540;42.136;24.742;2023-05-14T13:59:17;23.50;34.40
80230;DHT22;69540;42.136;24.742;2023-05-14T14:01:44;23.50;34.50
80230;DHT22;69540;42.136;24.742;2023-05-14T14:04:10;23.50;34.40
80230;DHT22;69540;42.136;24.742;2023-05-14T14:06:36;23.50;34.40
80230;DHT22;69540;42.136;24.742;2023-05-14T14:09:01;23.50;34.50
80230;DHT22;69540;42.136;24.742;2023-05-14T14:11:27;23.40;34.50
80230;DHT22;69540;42.136;24.742;2023-05-14T14:13:53;23.50;34.50
80230;DHT22;69540;42.136;24.742;2023-05-14T14:16:18;23.50;34.60
80230;DHT22;69540;42.136;24.742;2023-05-14T14:18:44;23.50;34.50
80230;DHT22;69540;42.136;24.742;2023-05-14T14:21:10;23.50;34.50
80230;DHT22;69540;42.136;24.742;2023-05-14T14:23:36;23.50;34.50
80230;DHT22;69540;42.136;24.742;2023-05-14T14:26:02;23.50;34.50
80230;DHT22;69540;42.136;24.742;2023-05-14T14:28:28;23.50;34.50
80230;DHT22;69540;42.136;24.742;2023-05-14T14:30:53;23.50;34.50
80230;DHT22;69540;42.136;24.742;2023-05-14T14:33:19;23.50;34.50
80230;DHT22;69540;42.136;24.742;2023-05-14T14:35:45;23.50;34.60
80230;DHT22;69540;42.136;24.742;2023-05-14T14:38:11;23.50;34.50
80230;DHT22;69540;42.136;24.742;2023-05-14T14:40:36;23.50;34.50
80230;DHT22;69540;42.136;24.742;2023-05-14T14:43:02;23.50;34.60
80230;DHT22;69540;42.136;24.742;2023-05-14T14:45:28;23.50;34.50
80230;DHT22;69540;42.136;24.742;2023-05-14T14:48:24;23.40;34.50
80230;DHT22;69540;42.136;24.742;2023-05-14T14:50:50;23.50;34.50
80230;DHT22;69540;42.136;24.742;2023-05-14T14:53:17;23.40;34.50
80230;DHT22;69540;42.136;24.742;2023-05-14T14:55:43;23.50;35.60
80230;DHT22;69540;42.136;24.742;2023-05-14T14:58:08;23.50;34.60
80230;DHT22;69540;42.136;24.742;2023-05-14T15:00:34;23.50;34.70
80230;DHT22;69540;42.136;24.742;2023-05-14T15:03:00;23.50;34.60
80230;DHT22;69540;42.136;24.742;2023-05-14T15:05:25;23.50;34.60
80230;DHT22;69540;42.136;24.742;2023-05-14T15:07:51;23.50;34.60
80230;DHT22;69540;42.136;24.742;2023-05-14T15:10:16;23.50;34.60
80230;DHT22;69540;42.136;24.742;2023-05-14T15:12:42;23.50;34.70
80230;DHT22;69540;42.136;24.742;2023-05-14T15:15:08;23.50;34.70
80230;DHT22;69540;42.136;24.742;2023-05-14T15:17:34;23.50;34.60
80230;DHT22;69540;42.136;24.742;2023-05-14T15:20:00;23.50;34.70
80230;DHT22;69540;42.136;24.742;2023-05-14T15:22:25;23.50;34.70
80230;DHT22;69540;42.136;24.742;2023-05-14T15:24:51;23.50;34.70
80230;DHT22;69540;42.136;24.742;2023-05-14T15:27:17;23.50;34.70